sensor_id;sensor_type;location;lat;lon;timestamp;noise_LAeq;noise_LA_min;noise_LA_max;noise_LA01;noise_LA95
61249;Laerm;47119;49.130;9.218;2022-07-18T00:00:08;32.89;30.21;42.45;;
61249;Laerm;47119;49.130;9.218;2022-07-18T00:02:36;33.26;30.09;58.77;;
61249;Laerm;47119;49.130;9.218;2022-07-18T00:05:04;43.36;30.77;62.20;;
61249;Laerm;47119;49.130;9.218;2022-07-18T00:07:32;37.26;31.12;48.58;;
61249;Laerm;47119;49.130;9.218;2022-07-18T00:09:59;33.96;30.51;45.51;;
61249;Laerm;47119;49.130;9.218;2022-07-18T00:12:27;34.32;30.11;45.54;;
61249;Laerm;47119;49.130;9.218;2022-07-18T00:14:54;33.19;30.22;36.72;;
61249;Laerm;47119;49.130;9.218;2022-07-18T00:17:22;39.46;30.90;54.81;;
61249;Laerm;47119;49.130;9.218;2022-07-18T00:19:49;36.79;30.28;50.00;;
61249;Laerm;47119;49.130;9.218;2022-07-18T00:22:18;36.02;30.93;45.37;;
61249;Laerm;47119;49.130;9.218;2022-07-18T00:24:45;37.25;30.88;49.97;;
61249;Laerm;47119;49.130;9.218;2022-07-18T00:27:15;37.91;31.18;46.68;;
61249;Laerm;47119;49.130;9.218;2022-07-18T00:29:43;35.56;31.21;46.13;;
61249;Laerm;47119;49.130;9.218;2022-07-18T00:32:10;39.03;31.41;50.13;;
61249;Laerm;47119;49.130;9.218;2022-07-18T00:34:37;46.41;30.53;67.17;;
61249;Laerm;47119;49.130;9.218;2022-07-18T00:37:05;48.83;30.86;68.96;;
61249;Laerm;47119;49.130;9.218;2022-07-18T00:39:36;37.80;31.11;45.07;;
61249;Laerm;47119;49.130;9.218;2022-07-18T00:42:04;36.89;30.77;48.01;;
61249;Laerm;47119;49.130;9.218;2022-07-18T00:44:31;34.01;30.26;53.07;;
61249;Laerm;47119;49.130;9.218;2022-07-18T00:47:01;44.67;30.31;65.95;;
61249;Laerm;47119;49.130;9.218;2022-07-18T00:49:29;38.53;31.34;51.55;;
61249;Laerm;47119;49.130;9.218;2022-07-18T00:51:58;33.22;30.37;36.28;;
61249;Laerm;47119;49.130;9.218;2022-07-18T00:54:25;35.04;30.37;45.07;;
61249;Laerm;47119;49.130;9.218;2022-07-18T00:56:55;35.17;30.42;54.49;;
61249;Laerm;47119;49.130;9.218;2022-07-18T00:59:25;35.58;30.78;42.63;;
61249;Laerm;47119;49.130;9.218;2022-07-18T01:02:15;45.34;30.52;68.10;;
61249;Laerm;47119;49.130;9.218;2022-07-18T01:04:43;42.19;30.65;63.08;;
61249;Laerm;47119;49.130;9.218;2022-07-18T01:07:12;36.03;31.33;46.79;;
61249;Laerm;47119;49.130;9.218;2022-07-18T01:09:39;37.28;30.71;48.48;;
61249;Laerm;47119;49.130;9.218;2022-07-18T01:12:09;39.51;30.34;52.70;;
61249;Laerm;47119;49.130;9.218;2022-07-18T01:14:37;45.30;29.76;64.71;;
61249;Laerm;47119;49.130;9.218;2022-07-18T01:17:14;35.35;29.70;47.80;;
61249;Laerm;47119;49.130;9.218;2022-07-18T01:19:47;43.78;30.49;64.46;;
61249;Laerm;47119;49.130;9.218;2022-07-18T01:22:22;33.15;29.96;41.30;;
61249;Laerm;47119;49.130;9.218;2022-07-18T01:24:49;43.29;30.11;63.21;;
61249;Laerm;47119;49.130;9.218;2022-07-18T01:27:18;43.99;30.77;64.72;;
61249;Laerm;47119;49.130;9.218;2022-07-18T01:29:47;33.24;30.16;38.70;;
61249;Laerm;47119;49.130;9.218;2022-07-18T01:32:15;36.79;30.77;48.21;;
61249;Laerm;47119;49.130;9.218;2022-07-18T01:34:48;42.78;30.64;62.17;;
61249;Laerm;47119;49.130;9.218;2022-07-18T01:37:19;43.41;31.38;62.82;;
61249;Laerm;47119;49.130;9.218;2022-07-18T01:39:49;41.70;30.58;61.75;;
61249;Laerm;47119;49.130;9.218;2022-07-18T01:42:16;34.83;30.71;42.42;;
61249;Laerm;47119;49.130;9.218;2022-07-18T01:44:46;34.42;30.94;43.20;;
61249;Laerm;47119;49.130;9.218;2022-07-18T01:47:13;39.03;30.57;55.43;;
61249;Laerm;47119;49.130;9.218;2022-07-18T01:49:43;36.27;29.97;53.36;;
61249;Laerm;47119;49.130;9.218;2022-07-18T01:52:10;46.68;30.83;71.51;;
61249;Laerm;47119;49.130;9.218;2022-07-18T01:54:38;42.44;30.89;62.32;;
61249;Laerm;47119;49.130;9.218;2022-07-18T01:57:07;44.81;30.47;64.86;;
61249;Laerm;47119;49.130;9.218;2022-07-18T01:59:36;32.99;30.09;40.34;;
61249;Laerm;47119;49.130;9.218;2022-07-18T02:02:06;41.89;29.93;61.64;;
61249;Laerm;47119;49.130;9.218;2022-07-18T02:04:36;34.38;30.18;45.35;;
61249;Laerm;47119;49.130;9.218;2022-07-18T02:07:19;35.35;30.64;46.41;;
61249;Laerm;47119;49.130;9.218;2022-07-18T02:09:48;41.33;30.87;59.64;;
61249;Laerm;47119;49.130;9.218;2022-07-18T02:12:17;35.43;31.27;44.03;;
61249;Laerm;47119;49.130;9.218;2022-07-18T02:14:44;36.44;31.55;47.24;;
61249;Laerm;47119;49.130;9.218;2022-07-18T02:17:15;35.54;31.00;56.27;;
61249;Laerm;47119;49.130;9.218;2022-07-18T02:19:42;35.06;31.24;40.44;;
61249;Laerm;47119;49.130;9.218;2022-07-18T02:22:09;36.24;31.14;45.92;;
61249;Laerm;47119;49.130;9.218;2022-07-18T02:24:38;48.20;32.62;73.51;;
61249;Laerm;47119;49.130;9.218;2022-07-18T02:27:07;43.87;34.29;66.69;;
61249;Laerm;47119;49.130;9.218;2022-07-18T02:29:37;39.86;32.16;67.23;;
61249;Laerm;47119;49.130;9.218;2022-07-18T02:32:05;38.02;31.68;44.60;;
61249;Laerm;47119;49.130;9.218;2022-07-18T02:34:32;36.09;31.70;48.69;;
61249;Laerm;47119;49.130;9.218;2022-07-18T02:37:00;41.10;31.32;59.98;;
61249;Laerm;47119;49.130;9.218;2022-07-18T02:39:27;43.44;31.86;60.01;;
61249;Laerm;47119;49.130;9.218;2022-07-18T02:41:55;44.79;31.64;61.33;;
61249;Laerm;47119;49.130;9.218;2022-07-18T02:44:25;41.04;31.39;49.81;;
61249;Laerm;47119;49.130;9.218;2022-07-18T02:46:52;43.78;31.62;51.74;;
61249;Laerm;47119;49.130;9.218;2022-07-18T02:49:21;46.48;31.89;65.75;;
61249;Laerm;47119;49.130;9.218;2022-07-18T02:51:57;44.81;31.52;63.30;;
61249;Laerm;47119;49.130;9.218;2022-07-18T02:54:26;42.26;31.90;58.91;;
61249;Laerm;47119;49.130;9.218;2022-07-18T02:56:54;47.70;32.27;59.00;;
61249;Laerm;47119;49.130;9.218;2022-07-18T02:59:22;39.78;31.73;49.78;;
61249;Laerm;47119;49.130;9.218;2022-07-18T03:01:53;42.82;31.71;59.60;;
61249;Laerm;47119;49.130;9.218;2022-07-18T03:04:21;41.11;32.54;58.37;;
61249;Laerm;47119;49.130;9.218;2022-07-18T03:06:49;38.34;31.62;48.75;;
61249;Laerm;47119;49.130;9.218;2022-07-18T03:09:17;44.30;32.74;63.30;;
61249;Laerm;47119;49.130;9.218;2022-07-18T03:11:49;45.13;33.96;61.27;;
61249;Laerm;47119;49.130;9.218;2022-07-18T03:14:16;46.68;35.73;63.36;;
61249;Laerm;47119;49.130;9.218;2022-07-18T03:16:48;47.70;35.88;64.39;;
61249;Laerm;47119;49.130;9.218;2022-07-18T03:19:16;45.48;35.46;58.88;;
61249;Laerm;47119;49.130;9.218;2022-07-18T03:21:46;56.53;41.72;64.99;;
61249;Laerm;47119;49.130;9.218;2022-07-18T03:24:16;55.11;48.00;65.35;;
61249;Laerm;47119;49.130;9.218;2022-07-18T03:26:43;60.42;50.48;67.87;;
61249;Laerm;47119;49.130;9.218;2022-07-18T03:29:11;59.43;52.62;64.85;;
61249;Laerm;47119;49.130;9.218;2022-07-18T03:31:39;65.05;55.14;75.48;;
61249;Laerm;47119;49.130;9.218;2022-07-18T03:34:06;61.93;56.03;69.58;;
61249;Laerm;47119;49.130;9.218;2022-07-18T03:36:35;60.34;52.51;67.15;;
61249;Laerm;47119;49.130;9.218;2022-07-18T03:39:05;59.64;51.17;67.56;;
61249;Laerm;47119;49.130;9.218;2022-07-18T03:41:32;56.70;51.18;64.81;;
61249;Laerm;47119;49.130;9.218;2022-07-18T03:44:00;57.34;52.87;61.32;;
61249;Laerm;47119;49.130;9.218;2022-07-18T03:46:27;58.30;54.10;67.21;;
61249;Laerm;47119;49.130;9.218;2022-07-18T03:48:54;57.77;50.20;62.48;;
61249;Laerm;47119;49.130;9.218;2022-07-18T03:51:23;50.10;36.25;63.78;;
61249;Laerm;47119;49.130;9.218;2022-07-18T03:53:52;49.57;39.31;55.96;;
61249;Laerm;47119;49.130;9.218;2022-07-18T03:56:22;54.07;44.18;64.17;;
61249;Laerm;47119;49.130;9.218;2022-07-18T03:58:54;55.47;46.63;66.99;;
61249;Laerm;47119;49.130;9.218;2022-07-18T04:01:21;50.41;46.67;55.48;;
61249;Laerm;47119;49.130;9.218;2022-07-18T04:03:48;53.03;47.59;64.43;;
61249;Laerm;47119;49.130;9.218;2022-07-18T04:06:18;54.00;47.98;66.63;;
61249;Laerm;47119;49.130;9.218;2022-07-18T04:08:46;61.29;48.73;72.73;;
61249;Laerm;47119;49.130;9.218;2022-07-18T04:11:18;51.82;38.78;65.75;;
61249;Laerm;47119;49.130;9.218;2022-07-18T04:13:50;50.66;38.70;67.19;;
61249;Laerm;47119;49.130;9.218;2022-07-18T04:16:17;52.54;37.40;67.12;;
61249;Laerm;47119;49.130;9.218;2022-07-18T04:18:46;53.82;41.06;74.68;;
61249;Laerm;47119;49.130;9.218;2022-07-18T04:21:15;46.12;37.02;59.92;;
61249;Laerm;47119;49.130;9.218;2022-07-18T04:23:44;51.21;38.90;63.78;;
61249;Laerm;47119;49.130;9.218;2022-07-18T04:26:14;52.72;38.59;68.48;;
61249;Laerm;47119;49.130;9.218;2022-07-18T04:28:42;48.75;37.90;61.01;;
61249;Laerm;47119;49.130;9.218;2022-07-18T04:31:12;56.66;39.87;70.13;;
61249;Laerm;47119;49.130;9.218;2022-07-18T04:33:41;55.32;39.60;72.75;;
61249;Laerm;47119;49.130;9.218;2022-07-18T04:36:08;52.76;36.40;69.95;;
61249;Laerm;47119;49.130;9.218;2022-07-18T04:38:38;51.61;38.14;63.13;;
61249;Laerm;47119;49.130;9.218;2022-07-18T04:41:06;51.70;37.90;63.55;;
61249;Laerm;47119;49.130;9.218;2022-07-18T04:43:33;52.05;40.98;64.39;;
61249;Laerm;47119;49.130;9.218;2022-07-18T04:46:01;50.27;38.10;65.45;;
61249;Laerm;47119;49.130;9.218;2022-07-18T04:48:30;50.88;38.80;65.49;;
61249;Laerm;47119;49.130;9.218;2022-07-18T04:50:59;51.72;38.64;64.12;;
61249;Laerm;47119;49.130;9.218;2022-07-18T04:53:26;58.09;41.86;75.64;;
61249;Laerm;47119;49.130;9.218;2022-07-18T04:55:53;52.78;40.05;67.19;;
61249;Laerm;47119;49.130;9.218;2022-07-18T04:58:22;54.12;43.33;68.84;;
61249;Laerm;47119;49.130;9.218;2022-07-18T05:00:49;49.91;40.15;63.50;;
61249;Laerm;47119;49.130;9.218;2022-07-18T05:03:18;52.86;41.06;64.04;;
61249;Laerm;47119;49.130;9.218;2022-07-18T05:05:45;51.81;41.27;64.38;;
61249;Laerm;47119;49.130;9.218;2022-07-18T05:08:14;54.03;40.96;69.53;;
61249;Laerm;47119;49.130;9.218;2022-07-18T05:10:42;53.40;38.78;73.58;;
61249;Laerm;47119;49.130;9.218;2022-07-18T05:13:09;54.25;39.83;67.89;;
61249;Laerm;47119;49.130;9.218;2022-07-18T05:15:39;54.18;43.84;67.00;;
61249;Laerm;47119;49.130;9.218;2022-07-18T05:18:06;52.34;41.95;64.30;;
61249;Laerm;47119;49.130;9.218;2022-07-18T05:20:34;53.30;41.11;71.31;;
61249;Laerm;47119;49.130;9.218;2022-07-18T05:23:02;51.90;42.25;64.42;;
61249;Laerm;47119;49.130;9.218;2022-07-18T05:25:29;51.14;40.51;62.65;;
61249;Laerm;47119;49.130;9.218;2022-07-18T05:27:58;51.90;42.79;71.21;;
61249;Laerm;47119;49.130;9.218;2022-07-18T05:30:25;53.36;43.54;66.34;;
61249;Laerm;47119;49.130;9.218;2022-07-18T05:32:53;56.33;42.38;75.11;;
61249;Laerm;47119;49.130;9.218;2022-07-18T05:35:20;53.08;45.38;65.25;;
61249;Laerm;47119;49.130;9.218;2022-07-18T05:37:49;55.43;41.20;73.15;;
61249;Laerm;47119;49.130;9.218;2022-07-18T05:40:17;59.22;43.62;78.06;;
61249;Laerm;47119;49.130;9.218;2022-07-18T05:42:44;53.26;42.74;67.99;;
61249;Laerm;47119;49.130;9.218;2022-07-18T05:45:11;53.00;44.75;64.68;;
61249;Laerm;47119;49.130;9.218;2022-07-18T05:47:38;52.68;42.87;66.14;;
61249;Laerm;47119;49.130;9.218;2022-07-18T05:50:08;54.93;43.13;67.25;;
61249;Laerm;47119;49.130;9.218;2022-07-18T05:52:36;53.31;42.16;63.86;;
61249;Laerm;47119;49.130;9.218;2022-07-18T05:55:08;56.24;43.55;76.58;;
61249;Laerm;47119;49.130;9.218;2022-07-18T05:57:36;52.74;41.91;68.78;;
61249;Laerm;47119;49.130;9.218;2022-07-18T06:00:06;54.60;45.58;63.41;;
61249;Laerm;47119;49.130;9.218;2022-07-18T06:02:35;57.86;46.18;69.07;;
61249;Laerm;47119;49.130;9.218;2022-07-18T06:05:03;55.23;45.11;66.40;;
61249;Laerm;47119;49.130;9.218;2022-07-18T06:07:31;55.69;43.15;70.34;;
61249;Laerm;47119;49.130;9.218;2022-07-18T06:09:59;52.38;39.88;66.09;;
61249;Laerm;47119;49.130;9.218;2022-07-18T06:12:29;52.40;41.99;63.60;;
61249;Laerm;47119;49.130;9.218;2022-07-18T06:14:57;51.82;42.12;64.42;;
61249;Laerm;47119;49.130;9.218;2022-07-18T06:17:27;54.68;41.94;70.96;;
61249;Laerm;47119;49.130;9.218;2022-07-18T06:19:57;51.02;40.91;63.20;;
61249;Laerm;47119;49.130;9.218;2022-07-18T06:22:25;52.88;42.96;67.49;;
61249;Laerm;47119;49.130;9.218;2022-07-18T06:24:52;59.83;43.54;71.21;;
61249;Laerm;47119;49.130;9.218;2022-07-18T06:27:19;54.42;40.03;69.84;;
61249;Laerm;47119;49.130;9.218;2022-07-18T06:29:47;59.53;43.29;79.21;;
61249;Laerm;47119;49.130;9.218;2022-07-18T06:32:14;53.95;42.48;72.29;;
61249;Laerm;47119;49.130;9.218;2022-07-18T06:34:41;52.51;41.07;64.93;;
61249;Laerm;47119;49.130;9.218;2022-07-18T06:37:10;53.57;43.65;66.97;;
61249;Laerm;47119;49.130;9.218;2022-07-18T06:39:40;53.79;41.01;65.63;;
61249;Laerm;47119;49.130;9.218;2022-07-18T06:42:10;53.25;42.12;68.68;;
61249;Laerm;47119;49.130;9.218;2022-07-18T06:44:37;54.53;42.50;69.75;;
61249;Laerm;47119;49.130;9.218;2022-07-18T06:47:06;53.03;41.37;62.95;;
61249;Laerm;47119;49.130;9.218;2022-07-18T06:49:33;56.53;42.12;73.75;;
61249;Laerm;47119;49.130;9.218;2022-07-18T06:52:00;52.11;42.31;64.32;;
61249;Laerm;47119;49.130;9.218;2022-07-18T06:54:29;52.92;41.18;63.86;;
61249;Laerm;47119;49.130;9.218;2022-07-18T06:56:56;55.75;44.01;72.54;;
61249;Laerm;47119;49.130;9.218;2022-07-18T06:59:24;54.28;40.69;65.33;;
61249;Laerm;47119;49.130;9.218;2022-07-18T07:01:51;54.80;44.54;65.77;;
61249;Laerm;47119;49.130;9.218;2022-07-18T07:04:20;53.00;39.63;68.54;;
61249;Laerm;47119;49.130;9.218;2022-07-18T07:06:49;56.28;46.06;76.13;;
61249;Laerm;47119;49.130;9.218;2022-07-18T07:09:16;54.07;41.69;70.50;;
61249;Laerm;47119;49.130;9.218;2022-07-18T07:11:46;51.98;41.27;66.34;;
61249;Laerm;47119;49.130;9.218;2022-07-18T07:14:15;57.55;43.70;72.98;;
61249;Laerm;47119;49.130;9.218;2022-07-18T07:16:42;57.72;41.76;76.33;;
61249;Laerm;47119;49.130;9.218;2022-07-18T07:19:09;52.61;44.00;62.92;;
61249;Laerm;47119;49.130;9.218;2022-07-18T07:21:38;56.27;45.65;70.01;;
61249;Laerm;47119;49.130;9.218;2022-07-18T07:24:06;54.29;44.76;66.25;;
61249;Laerm;47119;49.130;9.218;2022-07-18T07:26:33;55.02;45.67;67.38;;
61249;Laerm;47119;49.130;9.218;2022-07-18T07:29:00;54.68;46.50;69.18;;
61249;Laerm;47119;49.130;9.218;2022-07-18T07:31:27;54.64;42.84;67.04;;
61249;Laerm;47119;49.130;9.218;2022-07-18T07:33:54;54.43;42.05;69.97;;
61249;Laerm;47119;49.130;9.218;2022-07-18T07:36:22;51.89;42.39;65.68;;
61249;Laerm;47119;49.130;9.218;2022-07-18T07:38:52;57.09;42.52;71.38;;
61249;Laerm;47119;49.130;9.218;2022-07-18T07:41:19;53.57;43.88;67.82;;
61249;Laerm;47119;49.130;9.218;2022-07-18T07:43:46;52.98;39.35;68.06;;
61249;Laerm;47119;49.130;9.218;2022-07-18T07:46:14;58.49;44.32;71.77;;
61249;Laerm;47119;49.130;9.218;2022-07-18T07:48:41;51.16;39.73;66.18;;
61249;Laerm;47119;49.130;9.218;2022-07-18T07:51:09;54.19;42.69;68.33;;
61249;Laerm;47119;49.130;9.218;2022-07-18T07:53:36;52.91;40.96;63.49;;
61249;Laerm;47119;49.130;9.218;2022-07-18T07:56:05;51.49;40.97;63.28;;
61249;Laerm;47119;49.130;9.218;2022-07-18T07:58:32;52.30;40.43;65.05;;
61249;Laerm;47119;49.130;9.218;2022-07-18T08:00:59;59.79;45.99;72.38;;
61249;Laerm;47119;49.130;9.218;2022-07-18T08:03:28;51.78;40.47;64.76;;
61249;Laerm;47119;49.130;9.218;2022-07-18T08:05:56;53.36;43.91;67.68;;
61249;Laerm;47119;49.130;9.218;2022-07-18T08:08:23;50.73;40.91;63.78;;
61249;Laerm;47119;49.130;9.218;2022-07-18T08:10:53;54.26;40.68;67.82;;
61249;Laerm;47119;49.130;9.218;2022-07-18T08:13:24;53.22;44.20;64.38;;
61249;Laerm;47119;49.130;9.218;2022-07-18T08:15:51;51.33;41.30;64.68;;
61249;Laerm;47119;49.130;9.218;2022-07-18T08:18:20;52.67;43.33;64.67;;
61249;Laerm;47119;49.130;9.218;2022-07-18T08:20:50;52.84;40.23;68.59;;
61249;Laerm;47119;49.130;9.218;2022-07-18T08:23:17;53.48;43.77;69.92;;
61249;Laerm;47119;49.130;9.218;2022-07-18T08:25:46;52.38;40.17;65.78;;
61249;Laerm;47119;49.130;9.218;2022-07-18T08:28:14;52.01;40.69;66.27;;
61249;Laerm;47119;49.130;9.218;2022-07-18T08:30:45;51.64;40.68;63.14;;
61249;Laerm;47119;49.130;9.218;2022-07-18T08:33:12;52.69;40.24;72.39;;
61249;Laerm;47119;49.130;9.218;2022-07-18T08:35:39;52.53;41.00;64.57;;
61249;Laerm;47119;49.130;9.218;2022-07-18T08:38:09;54.41;42.86;65.10;;
61249;Laerm;47119;49.130;9.218;2022-07-18T08:40:37;53.45;43.83;66.83;;
61249;Laerm;47119;49.130;9.218;2022-07-18T08:43:09;57.94;41.02;74.05;;
61249;Laerm;47119;49.130;9.218;2022-07-18T08:45:37;59.27;44.02;82.84;;
61249;Laerm;47119;49.130;9.218;2022-07-18T08:48:08;55.22;44.81;71.02;;
61249;Laerm;47119;49.130;9.218;2022-07-18T08:50:35;65.96;46.51;85.85;;
61249;Laerm;47119;49.130;9.218;2022-07-18T08:53:06;53.44;43.22;68.33;;
61249;Laerm;47119;49.130;9.218;2022-07-18T08:55:33;53.52;44.17;64.82;;
61249;Laerm;47119;49.130;9.218;2022-07-18T08:58:00;55.47;45.48;77.54;;
61249;Laerm;47119;49.130;9.218;2022-07-18T09:00:27;61.43;42.33;79.13;;
61249;Laerm;47119;49.130;9.218;2022-07-18T09:02:59;53.97;41.19;72.34;;
61249;Laerm;47119;49.130;9.218;2022-07-18T09:05:29;50.71;41.21;62.40;;
61249;Laerm;47119;49.130;9.218;2022-07-18T09:08:12;50.33;39.67;68.20;;
61249;Laerm;47119;49.130;9.218;2022-07-18T09:10:49;53.13;44.33;64.61;;
61249;Laerm;47119;49.130;9.218;2022-07-18T09:13:24;60.20;43.90;75.43;;
61249;Laerm;47119;49.130;9.218;2022-07-18T09:16:00;54.76;40.96;76.62;;
61249;Laerm;47119;49.130;9.218;2022-07-18T09:18:30;51.48;38.55;62.67;;
61249;Laerm;47119;49.130;9.218;2022-07-18T09:21:04;55.86;41.26;74.76;;
61249;Laerm;47119;49.130;9.218;2022-07-18T09:23:33;53.84;40.93;68.45;;
61249;Laerm;47119;49.130;9.218;2022-07-18T09:26:02;54.56;41.65;67.32;;
61249;Laerm;47119;49.130;9.218;2022-07-18T09:28:46;54.61;42.19;76.44;;
61249;Laerm;47119;49.130;9.218;2022-07-18T09:31:18;52.65;44.58;69.36;;
61249;Laerm;47119;49.130;9.218;2022-07-18T09:33:52;52.83;41.45;67.48;;
61249;Laerm;47119;49.130;9.218;2022-07-18T09:36:28;54.24;40.87;68.83;;
61249;Laerm;47119;49.130;9.218;2022-07-18T09:39:17;52.27;40.63;64.66;;
61249;Laerm;47119;49.130;9.218;2022-07-18T09:41:47;54.87;43.74;65.11;;
61249;Laerm;47119;49.130;9.218;2022-07-18T09:44:18;55.94;42.96;74.40;;
61249;Laerm;47119;49.130;9.218;2022-07-18T09:47:06;53.72;44.07;65.95;;
61249;Laerm;47119;49.130;9.218;2022-07-18T09:49:50;52.40;41.75;64.78;;
61249;Laerm;47119;49.130;9.218;2022-07-18T09:52:22;55.47;43.78;66.21;;
61249;Laerm;47119;49.130;9.218;2022-07-18T09:55:04;55.70;42.40;66.80;;
61249;Laerm;47119;49.130;9.218;2022-07-18T09:57:32;54.92;43.41;66.24;;
61249;Laerm;47119;49.130;9.218;2022-07-18T09:59:59;55.76;44.20;71.78;;
61249;Laerm;47119;49.130;9.218;2022-07-18T10:02:27;56.19;43.01;73.43;;
61249;Laerm;47119;49.130;9.218;2022-07-18T10:04:56;62.53;45.68;78.80;;
61249;Laerm;47119;49.130;9.218;2022-07-18T10:07:25;54.45;43.09;66.98;;
61249;Laerm;47119;49.130;9.218;2022-07-18T10:09:55;53.60;41.25;66.17;;
61249;Laerm;47119;49.130;9.218;2022-07-18T10:12:32;55.32;41.74;75.91;;
61249;Laerm;47119;49.130;9.218;2022-07-18T10:15:01;53.67;42.72;68.25;;
61249;Laerm;47119;49.130;9.218;2022-07-18T10:17:31;55.82;40.26;74.96;;
61249;Laerm;47119;49.130;9.218;2022-07-18T10:20:09;53.43;42.32;68.37;;
61249;Laerm;47119;49.130;9.218;2022-07-18T10:22:42;53.87;41.57;66.56;;
61249;Laerm;47119;49.130;9.218;2022-07-18T10:25:13;56.36;41.58;74.42;;
61249;Laerm;47119;49.130;9.218;2022-07-18T10:27:53;53.45;42.40;70.28;;
61249;Laerm;47119;49.130;9.218;2022-07-18T10:30:37;53.54;43.21;67.76;;
61249;Laerm;47119;49.130;9.218;2022-07-18T10:33:40;54.32;42.49;67.55;;
61249;Laerm;47119;49.130;9.218;2022-07-18T10:36:13;54.68;39.59;73.68;;
61249;Laerm;47119;49.130;9.218;2022-07-18T10:39:10;51.51;40.51;61.26;;
61249;Laerm;47119;49.130;9.218;2022-07-18T10:42:20;53.61;41.24;69.05;;
61249;Laerm;47119;49.130;9.218;2022-07-18T10:44:50;53.66;41.92;71.22;;
61249;Laerm;47119;49.130;9.218;2022-07-18T10:47:28;52.42;41.85;62.71;;
61249;Laerm;47119;49.130;9.218;2022-07-18T10:50:05;54.74;39.73;70.17;;
61249;Laerm;47119;49.130;9.218;2022-07-18T10:53:01;53.46;42.11;66.26;;
61249;Laerm;47119;49.130;9.218;2022-07-18T10:55:31;54.63;41.07;67.32;;
61249;Laerm;47119;49.130;9.218;2022-07-18T10:58:20;55.94;39.49;79.48;;
61249;Laerm;47119;49.130;9.218;2022-07-18T11:00:52;55.51;44.77;73.02;;
61249;Laerm;47119;49.130;9.218;2022-07-18T11:03:32;53.59;39.18;71.58;;
61249;Laerm;47119;49.130;9.218;2022-07-18T11:06:03;53.11;40.64;65.46;;
61249;Laerm;47119;49.130;9.218;2022-07-18T11:08:37;55.48;42.69;67.94;;
61249;Laerm;47119;49.130;9.218;2022-07-18T11:12:27;56.14;42.16;74.37;;
61249;Laerm;47119;49.130;9.218;2022-07-18T11:15:58;59.62;41.96;78.55;;
61249;Laerm;47119;49.130;9.218;2022-07-18T11:19:17;53.49;41.77;68.36;;
61249;Laerm;47119;49.130;9.218;2022-07-18T11:21:56;55.08;42.26;69.09;;
61249;Laerm;47119;49.130;9.218;2022-07-18T11:24:33;53.52;43.58;64.69;;
61249;Laerm;47119;49.130;9.218;2022-07-18T11:27:04;53.71;39.18;64.74;;
61249;Laerm;47119;49.130;9.218;2022-07-18T11:29:40;52.16;40.48;67.85;;
61249;Laerm;47119;49.130;9.218;2022-07-18T11:32:23;53.18;39.35;66.59;;
61249;Laerm;47119;49.130;9.218;2022-07-18T11:35:02;59.20;42.41;74.72;;
61249;Laerm;47119;49.130;9.218;2022-07-18T11:37:39;52.29;42.15;64.35;;
61249;Laerm;47119;49.130;9.218;2022-07-18T11:40:13;54.39;40.87;69.95;;
61249;Laerm;47119;49.130;9.218;2022-07-18T11:42:44;52.43;42.58;64.70;;
61249;Laerm;47119;49.130;9.218;2022-07-18T11:45:17;52.39;41.43;67.35;;
61249;Laerm;47119;49.130;9.218;2022-07-18T11:47:51;54.91;40.05;70.31;;
61249;Laerm;47119;49.130;9.218;2022-07-18T11:50:37;55.96;43.91;72.79;;
61249;Laerm;47119;49.130;9.218;2022-07-18T11:56:32;50.15;39.83;64.12;;
61249;Laerm;47119;49.130;9.218;2022-07-18T11:59:02;53.53;41.79;71.84;;
61249;Laerm;47119;49.130;9.218;2022-07-18T12:01:40;52.54;41.84;64.90;;
61249;Laerm;47119;49.130;9.218;2022-07-18T12:04:39;50.81;42.31;64.29;;
61249;Laerm;47119;49.130;9.218;2022-07-18T12:07:18;51.69;40.73;63.54;;
61249;Laerm;47119;49.130;9.218;2022-07-18T12:09:48;53.17;41.79;64.54;;
61249;Laerm;47119;49.130;9.218;2022-07-18T12:12:23;52.97;41.29;70.16;;
61249;Laerm;47119;49.130;9.218;2022-07-18T12:14:55;53.35;42.23;65.56;;
61249;Laerm;47119;49.130;9.218;2022-07-18T12:17:27;63.74;42.87;87.25;;
61249;Laerm;47119;49.130;9.218;2022-07-18T12:20:11;58.93;43.27;79.95;;
61249;Laerm;47119;49.130;9.218;2022-07-18T12:23:05;55.87;41.79;71.11;;
61249;Laerm;47119;49.130;9.218;2022-07-18T12:25:38;51.78;41.10;65.03;;
61249;Laerm;47119;49.130;9.218;2022-07-18T12:28:18;51.76;39.36;63.79;;
61249;Laerm;47119;49.130;9.218;2022-07-18T12:30:50;54.03;42.89;70.84;;
61249;Laerm;47119;49.130;9.218;2022-07-18T12:33:23;54.50;40.57;70.28;;
61249;Laerm;47119;49.130;9.218;2022-07-18T12:35:58;53.20;40.95;74.50;;
61249;Laerm;47119;49.130;9.218;2022-07-18T12:38:29;52.22;40.57;71.22;;
61249;Laerm;47119;49.130;9.218;2022-07-18T12:40:59;51.75;39.32;65.70;;
61249;Laerm;47119;49.130;9.218;2022-07-18T12:43:30;51.08;42.06;66.40;;
61249;Laerm;47119;49.130;9.218;2022-07-18T12:46:05;53.97;42.10;68.28;;
61249;Laerm;47119;49.130;9.218;2022-07-18T12:48:35;53.81;41.98;67.88;;
61249;Laerm;47119;49.130;9.218;2022-07-18T12:51:17;52.74;41.21;72.80;;
61249;Laerm;47119;49.130;9.218;2022-07-18T12:53:50;53.18;41.59;65.42;;
61249;Laerm;47119;49.130;9.218;2022-07-18T12:56:17;52.50;40.39;66.30;;
61249;Laerm;47119;49.130;9.218;2022-07-18T12:58:46;52.63;40.63;67.49;;
61249;Laerm;47119;49.130;9.218;2022-07-18T13:01:14;55.01;42.44;75.04;;
61249;Laerm;47119;49.130;9.218;2022-07-18T13:03:47;53.08;40.88;66.12;;
61249;Laerm;47119;49.130;9.218;2022-07-18T13:06:15;52.35;40.12;65.32;;
61249;Laerm;47119;49.130;9.218;2022-07-18T13:08:46;54.92;41.16;73.58;;
61249;Laerm;47119;49.130;9.218;2022-07-18T13:11:16;52.82;42.41;65.83;;
61249;Laerm;47119;49.130;9.218;2022-07-18T13:13:43;53.97;43.40;67.48;;
61249;Laerm;47119;49.130;9.218;2022-07-18T13:16:10;54.10;43.37;69.05;;
61249;Laerm;47119;49.130;9.218;2022-07-18T13:18:37;55.92;42.40;72.05;;
61249;Laerm;47119;49.130;9.218;2022-07-18T13:21:06;53.99;42.22;64.68;;
61249;Laerm;47119;49.130;9.218;2022-07-18T13:23:51;53.85;45.50;63.44;;
61249;Laerm;47119;49.130;9.218;2022-07-18T13:26:22;55.16;41.50;71.51;;
61249;Laerm;47119;49.130;9.218;2022-07-18T13:28:51;53.20;41.99;68.25;;
61249;Laerm;47119;49.130;9.218;2022-07-18T13:31:44;52.57;43.45;65.47;;
61249;Laerm;47119;49.130;9.218;2022-07-18T13:34:50;51.28;42.20;63.79;;
61249;Laerm;47119;49.130;9.218;2022-07-18T13:38:02;57.41;43.70;74.15;;
61249;Laerm;47119;49.130;9.218;2022-07-18T13:40:43;58.62;43.78;76.69;;
61249;Laerm;47119;49.130;9.218;2022-07-18T13:43:10;54.77;43.23;65.41;;
61249;Laerm;47119;49.130;9.218;2022-07-18T13:45:47;54.71;42.52;66.52;;
61249;Laerm;47119;49.130;9.218;2022-07-18T13:48:38;52.83;43.34;63.99;;
61249;Laerm;47119;49.130;9.218;2022-07-18T13:51:09;52.73;41.02;72.12;;
61249;Laerm;47119;49.130;9.218;2022-07-18T13:53:46;54.90;41.40;74.72;;
61249;Laerm;47119;49.130;9.218;2022-07-18T13:56:38;53.33;42.06;66.22;;
61249;Laerm;47119;49.130;9.218;2022-07-18T13:59:40;53.77;42.68;65.20;;
61249;Laerm;47119;49.130;9.218;2022-07-18T14:02:07;53.99;43.31;69.27;;
61249;Laerm;47119;49.130;9.218;2022-07-18T14:04:35;54.41;41.62;67.08;;
61249;Laerm;47119;49.130;9.218;2022-07-18T14:07:04;57.24;42.31;75.86;;
61249;Laerm;47119;49.130;9.218;2022-07-18T14:10:21;57.67;42.62;75.87;;
61249;Laerm;47119;49.130;9.218;2022-07-18T14:12:59;53.83;42.36;65.74;;